Time;durP1;ratioP1;P1;durP2;ratioP2;P2;SDS_P1;SDS_P2;PMS_P1;PMS_P2;Temp;Humidity;BMP_temperature;BMP_pressure;BME280_temperature;BME280_humidity;BME280_pressure;Samples;Min_cycle;Max_cycle;Signal;HPM_P1;HPM_P2
2023/01/10 00:00:23;;;;;;;0.60;0.57;;;;;;;;;;4994999;28;20208;-42
2023/01/10 00:02:50;;;;;;;0.77;0.50;;;;;;;;;;5012379;28;20246;-32
2023/01/10 00:05:18;;;;;;;0.30;0.30;;;;;;;;;;5013504;28;20235;-36
2023/01/10 00:07:45;;;;;;;0.40;0.40;;;;;;;;;;5004055;28;20230;-34
2023/01/10 00:10:12;;;;;;;0.80;0.80;;;;;;;;;;5011592;28;20223;-36
2023/01/10 00:15:26;;;;;;;1.23;0.60;;;;;;;;;;5000893;28;20277;-34
2023/01/10 00:17:53;;;;;;;0.53;0.53;;;;;;;;;;5012668;28;20211;-38
2023/01/10 00:20:20;;;;;;;0.50;0.50;;;;;;;;;;5011020;28;20303;-42
2023/01/10 00:22:49;;;;;;;0.50;0.50;;;;;;;;;;4999140;28;20231;-34
2023/01/10 00:25:18;;;;;;;0.70;0.53;;;;;;;;;;5011741;28;20246;-37
2023/01/10 00:27:47;;;;;;;0.50;0.50;;;;;;;;;;5008031;28;20277;-35
2023/01/10 00:30:14;;;;;;;0.67;0.50;;;;;;;;;;5009044;28;20207;-38
2023/01/10 00:32:43;;;;;;;1.30;0.30;;;;;;;;;;5012450;28;20234;-34
2023/01/10 00:35:10;;;;;;;0.60;0.50;;;;;;;;;;5012444;28;20265;-40
2023/01/10 00:37:38;;;;;;;0.40;0.40;;;;;;;;;;5005901;28;20261;-36
2023/01/10 00:40:07;;;;;;;0.30;0.30;;;;;;;;;;5008509;28;20207;-40
2023/01/10 00:45:25;;;;;;;0.83;0.50;;;;;;;;;;5006804;28;20475;-34
2023/01/10 00:47:54;;;;;;;0.40;0.40;;;;;;;;;;5007069;28;20196;-33
2023/01/10 00:50:21;;;;;;;2.00;0.50;;;;;;;;;;5011577;28;20713;-38
2023/01/10 00:52:48;;;;;;;2.00;0.57;;;;;;;;;;5006916;28;20233;-36
2023/01/10 00:55:15;;;;;;;0.50;0.50;;;;;;;;;;5006326;28;20210;-32
2023/01/10 00:57:42;;;;;;;0.73;0.40;;;;;;;;;;5005400;28;20219;-37
2023/01/10 01:00:11;;;;;;;0.63;0.63;;;;;;;;;;4999508;28;20208;-37
2023/01/10 01:02:38;;;;;;;0.87;0.60;;;;;;;;;;5008567;28;20231;-31
2023/01/10 01:05:07;;;;;;;0.40;0.40;;;;;;;;;;5011236;28;20611;-31
2023/01/10 01:07:34;;;;;;;0.67;0.40;;;;;;;;;;5000866;28;20226;-41
2023/01/10 01:12:46;;;;;;;0.70;0.70;;;;;;;;;;5006264;28;20234;-40
2023/01/10 01:15:13;;;;;;;0.60;0.50;;;;;;;;;;5004640;28;20426;-36
2023/01/10 01:17:40;;;;;;;0.40;0.40;;;;;;;;;;5010629;28;20207;-33
2023/01/10 01:20:12;;;;;;;3.10;0.80;;;;;;;;;;5010778;28;20215;-40
2023/01/10 01:22:39;;;;;;;0.63;0.50;;;;;;;;;;5003190;28;20243;-35
2023/01/10 01:25:07;;;;;;;0.50;0.50;;;;;;;;;;5002887;28;20234;-33
2023/01/10 01:27:36;;;;;;;0.40;0.40;;;;;;;;;;5007153;28;20241;-38
2023/01/10 01:30:04;;;;;;;0.63;0.63;;;;;;;;;;4998270;28;20204;-38
2023/01/10 01:32:31;;;;;;;0.60;0.60;;;;;;;;;;5010134;28;20751;-34
2023/01/10 01:34:59;;;;;;;1.67;0.50;;;;;;;;;;5010670;28;20222;-33
2023/01/10 01:37:27;;;;;;;0.60;0.60;;;;;;;;;;5002075;28;20200;-41
2023/01/10 01:39:54;;;;;;;1.13;0.67;;;;;;;;;;5001855;28;20211;-36
2023/01/10 01:42:22;;;;;;;0.83;0.50;;;;;;;;;;5012711;28;20235;-38
2023/01/10 01:45:23;;;;;;;0.60;0.60;;;;;;;;;;4999079;28;20230;-40
2023/01/10 01:47:53;;;;;;;0.60;0.60;;;;;;;;;;5005974;28;20207;-38
2023/01/10 01:50:23;;;;;;;0.33;0.33;;;;;;;;;;5012954;28;20707;-33
2023/01/10 01:52:53;;;;;;;0.60;0.60;;;;;;;;;;5008251;28;20234;-38
2023/01/10 01:55:20;;;;;;;1.20;0.77;;;;;;;;;;5006645;28;20208;-36
2023/01/10 01:57:49;;;;;;;0.50;0.50;;;;;;;;;;5005783;28;20290;-32
2023/01/10 02:00:16;;;;;;;0.50;0.50;;;;;;;;;;5002999;28;20203;-32
2023/01/10 02:02:45;;;;;;;0.50;0.50;;;;;;;;;;5009196;28;20227;-34
2023/01/10 02:05:14;;;;;;;0.43;0.43;;;;;;;;;;5009853;28;20247;-36
2023/01/10 02:07:42;;;;;;;0.40;0.40;;;;;;;;;;4999136;28;20208;-31
2023/01/10 02:10:14;;;;;;;0.60;0.60;;;;;;;;;;5006802;28;20281;-38
2023/01/10 02:12:42;;;;;;;0.50;0.50;;;;;;;;;;5005730;28;20246;-33
2023/01/10 02:15:10;;;;;;;0.63;0.40;;;;;;;;;;4997757;28;20211;-39
2023/01/10 02:17:38;;;;;;;0.37;0.37;;;;;;;;;;5007569;28;20211;-38
2023/01/10 02:20:06;;;;;;;0.90;0.43;;;;;;;;;;5009716;28;20203;-39
2023/01/10 02:22:50;;;;;;;0.30;0.30;;;;;;;;;;4998656;28;20231;-39
2023/01/10 02:25:32;;;;;;;0.30;0.30;;;;;;;;;;5002735;28;20218;-41
2023/01/10 02:28:10;;;;;;;0.93;0.37;;;;;;;;;;4971758;28;20298;-36
2023/01/10 02:30:54;;;;;;;0.40;0.40;;;;;;;;;;5007715;28;20230;-38
2023/01/10 02:33:26;;;;;;;0.50;0.50;;;;;;;;;;5005817;28;20222;-38
2023/01/10 02:36:03;;;;;;;0.30;0.20;;;;;;;;;;4999612;28;20266;-43
2023/01/10 02:38:36;;;;;;;0.40;0.40;;;;;;;;;;5000017;28;20680;-39
2023/01/10 02:41:10;;;;;;;0.30;0.30;;;;;;;;;;5006956;28;20223;-37
2023/01/10 02:43:39;;;;;;;0.20;0.20;;;;;;;;;;5002888;28;20207;-35
2023/01/10 02:46:08;;;;;;;0.97;0.40;;;;;;;;;;5005125;28;20227;-38
2023/01/10 02:48:36;;;;;;;0.10;0.10;;;;;;;;;;5003914;28;20646;-38
2023/01/10 02:51:04;;;;;;;0.93;0.43;;;;;;;;;;5000773;28;20227;-33
2023/01/10 02:53:34;;;;;;;0.27;0.27;;;;;;;;;;5005267;28;20252;-37
2023/01/10 02:56:16;;;;;;;0.43;0.40;;;;;;;;;;5009568;28;20218;-35
2023/01/10 02:58:54;;;;;;;0.37;0.37;;;;;;;;;;4993598;28;20207;-35
2023/01/10 03:01:27;;;;;;;0.40;0.40;;;;;;;;;;5006668;28;20227;-40
2023/01/10 03:04:02;;;;;;;0.30;0.30;;;;;;;;;;5005269;28;20213;-33
2023/01/10 03:06:33;;;;;;;0.50;0.50;;;;;;;;;;5009252;28;20234;-37
2023/01/10 03:09:05;;;;;;;0.30;0.30;;;;;;;;;;5000053;28;20544;-32
2023/01/10 03:11:43;;;;;;;0.30;0.30;;;;;;;;;;5007782;28;20227;-40
2023/01/10 03:14:14;;;;;;;0.50;0.50;;;;;;;;;;5000155;28;20210;-36
2023/01/10 03:16:42;;;;;;;0.40;0.40;;;;;;;;;;5008413;28;20408;-37
2023/01/10 03:19:13;;;;;;;1.33;0.30;;;;;;;;;;5006811;28;20215;-38
2023/01/10 03:21:41;;;;;;;0.93;0.60;;;;;;;;;;4987849;28;20502;-33
2023/01/10 03:24:11;;;;;;;0.40;0.40;;;;;;;;;;4991210;28;20508;-40
2023/01/10 03:26:43;;;;;;;0.40;0.40;;;;;;;;;;5009957;28;20223;-38
2023/01/10 03:29:12;;;;;;;0.50;0.40;;;;;;;;;;5002658;28;20199;-35
2023/01/10 03:31:41;;;;;;;0.30;0.30;;;;;;;;;;5004992;28;20237;-37
2023/01/10 03:34:09;;;;;;;1.67;0.50;;;;;;;;;;5012372;28;20213;-38
2023/01/10 03:36:41;;;;;;;0.47;0.47;;;;;;;;;;5007124;28;20203;-37
2023/01/10 03:39:12;;;;;;;1.00;0.70;;;;;;;;;;5006058;28;20630;-37
2023/01/10 03:41:41;;;;;;;0.77;0.60;;;;;;;;;;5011954;28;20739;-33
2023/01/10 03:47:03;;;;;;;1.67;0.80;;;;;;;;;;5006563;28;20277;-38
2023/01/10 03:49:31;;;;;;;0.80;0.80;;;;;;;;;;5005739;28;20200;-40
2023/01/10 03:52:01;;;;;;;1.67;0.40;;;;;;;;;;5002177;28;20223;-34
2023/01/10 03:54:28;;;;;;;1.00;0.63;;;;;;;;;;5006505;28;20234;-32
2023/01/10 03:56:55;;;;;;;1.43;1.23;;;;;;;;;;5012211;28;20203;-32
2023/01/10 03:59:24;;;;;;;0.73;0.73;;;;;;;;;;4993154;28;20216;-34
2023/01/10 04:01:51;;;;;;;1.80;0.63;;;;;;;;;;5005524;28;20223;-37
2023/01/10 04:04:18;;;;;;;0.83;0.70;;;;;;;;;;5012328;28;20207;-38
2023/01/10 04:06:45;;;;;;;0.50;0.50;;;;;;;;;;5006576;28;20219;-34
2023/01/10 04:09:14;;;;;;;2.73;1.03;;;;;;;;;;5005858;28;20207;-35
2023/01/10 04:11:41;;;;;;;0.93;0.73;;;;;;;;;;5010449;28;20226;-35
2023/01/10 04:14:08;;;;;;;2.10;1.03;;;;;;;;;;4995997;28;20210;-39
2023/01/10 04:16:35;;;;;;;5.93;0.80;;;;;;;;;;5003159;28;20210;-32
2023/01/10 04:19:02;;;;;;;1.87;0.93;;;;;;;;;;5011432;28;20215;-38
2023/01/10 04:21:29;;;;;;;2.00;0.67;;;;;;;;;;5001915;28;20235;-37
2023/01/10 04:23:56;;;;;;;4.10;1.17;;;;;;;;;;5000554;28;20291;-36
2023/01/10 04:26:25;;;;;;;2.80;1.20;;;;;;;;;;5010654;28;20245;-39
2023/01/10 04:28:52;;;;;;;1.30;1.00;;;;;;;;;;5002765;28;20219;-33
2023/01/10 04:31:19;;;;;;;2.10;1.20;;;;;;;;;;4994266;28;20234;-33
2023/01/10 04:33:46;;;;;;;1.67;1.10;;;;;;;;;;5011784;28;20294;-42
2023/01/10 04:36:13;;;;;;;5.10;1.60;;;;;;;;;;5008668;28;20210;-38
2023/01/10 04:38:40;;;;;;;3.03;1.27;;;;;;;;;;5004534;28;20204;-40
2023/01/10 04:41:07;;;;;;;3.77;1.40;;;;;;;;;;5009611;28;20249;-39
2023/01/10 04:43:36;;;;;;;2.03;1.50;;;;;;;;;;5002390;28;20204;-35
2023/01/10 04:46:03;;;;;;;1.67;1.20;;;;;;;;;;4995523;28;20234;-35
2023/01/10 04:48:30;;;;;;;2.93;0.97;;;;;;;;;;5009265;28;20265;-32
2023/01/10 04:50:57;;;;;;;2.37;0.83;;;;;;;;;;5009259;28;20366;-32
2023/01/10 04:53:24;;;;;;;2.10;0.90;;;;;;;;;;4994890;28;20210;-32
2023/01/10 04:55:51;;;;;;;2.37;1.30;;;;;;;;;;5007647;28;20203;-39
2023/01/10 04:58:19;;;;;;;1.67;1.10;;;;;;;;;;5004368;28;20204;-36
2023/01/10 05:00:47;;;;;;;2.13;0.97;;;;;;;;;;4998431;28;20230;-32
2023/01/10 05:03:16;;;;;;;2.77;1.00;;;;;;;;;;5011001;28;20199;-33
2023/01/10 05:05:43;;;;;;;2.00;0.93;;;;;;;;;;5007241;28;20584;-39
2023/01/10 05:08:10;;;;;;;1.37;1.10;;;;;;;;;;4994569;28;20207;-34
2023/01/10 05:10:37;;;;;;;3.43;1.20;;;;;;;;;;5007103;28;20207;-38
2023/01/10 05:13:04;;;;;;;2.97;1.43;;;;;;;;;;5001342;28;20643;-38
2023/01/10 05:15:32;;;;;;;1.40;0.97;;;;;;;;;;5004490;28;20216;-32
2023/01/10 05:18:00;;;;;;;1.33;0.90;;;;;;;;;;5010932;28;20211;-36
2023/01/10 05:20:27;;;;;;;0.97;0.67;;;;;;;;;;5011308;28;20213;-35
2023/01/10 05:23:02;;;;;;;3.60;0.97;;;;;;;;;;4998363;28;20227;-36
2023/01/10 05:25:29;;;;;;;2.23;1.27;;;;;;;;;;5012736;28;20219;-38
2023/01/10 05:27:57;;;;;;;3.43;0.80;;;;;;;;;;5007889;28;20215;-37
2023/01/10 05:30:24;;;;;;;1.00;0.80;;;;;;;;;;5006038;28;20211;-38
2023/01/10 05:32:51;;;;;;;0.50;0.50;;;;;;;;;;5011277;28;20246;-34
2023/01/10 05:35:19;;;;;;;1.10;0.60;;;;;;;;;;5012257;28;20211;-37
2023/01/10 05:37:46;;;;;;;0.77;0.77;;;;;;;;;;5004359;28;20210;-38
2023/01/10 05:40:13;;;;;;;0.60;0.60;;;;;;;;;;5003969;28;20219;-33
2023/01/10 05:42:40;;;;;;;3.47;0.80;;;;;;;;;;5007960;28;20227;-34
2023/01/10 05:45:08;;;;;;;1.73;0.60;;;;;;;;;;5002236;28;20204;-37
2023/01/10 05:47:35;;;;;;;0.70;0.60;;;;;;;;;;5008472;28;20196;-39
2023/01/10 05:50:02;;;;;;;1.63;0.80;;;;;;;;;;5009616;28;20207;-36
2023/01/10 05:52:31;;;;;;;0.60;0.60;;;;;;;;;;4998021;28;20227;-35
2023/01/10 05:54:58;;;;;;;0.50;0.50;;;;;;;;;;5007411;28;20203;-39
2023/01/10 05:57:25;;;;;;;1.07;0.67;;;;;;;;;;5009601;28;20206;-36
2023/01/10 05:59:52;;;;;;;0.57;0.50;;;;;;;;;;5002115;28;20203;-34
2023/01/10 06:02:19;;;;;;;0.67;0.40;;;;;;;;;;5006500;28;20226;-35
2023/01/10 06:04:46;;;;;;;1.90;0.63;;;;;;;;;;5009912;28;20215;-33
2023/01/10 06:07:13;;;;;;;0.80;0.80;;;;;;;;;;4995542;28;20227;-32
2023/01/10 06:09:42;;;;;;;1.00;0.73;;;;;;;;;;5005418;28;20318;-38
2023/01/10 06:12:09;;;;;;;2.33;0.87;;;;;;;;;;5010821;28;20230;-36
2023/01/10 06:14:36;;;;;;;0.97;0.70;;;;;;;;;;4993955;28;20212;-32
2023/01/10 06:17:07;;;;;;;1.33;1.10;;;;;;;;;;4995805;28;20207;-39
2023/01/10 06:19:34;;;;;;;1.50;1.10;;;;;;;;;;5010929;28;20214;-35
2023/01/10 06:22:01;;;;;;;2.73;1.00;;;;;;;;;;5011342;28;20227;-39
2023/01/10 06:24:28;;;;;;;2.13;0.80;;;;;;;;;;5006094;28;20211;-39
2023/01/10 06:26:57;;;;;;;3.60;1.03;;;;;;;;;;4993856;28;20223;-40
2023/01/10 06:29:24;;;;;;;3.83;1.00;;;;;;;;;;4988488;28;20211;-35
2023/01/10 06:31:51;;;;;;;1.43;0.80;;;;;;;;;;5007647;28;20238;-33
2023/01/10 06:34:18;;;;;;;4.80;1.00;;;;;;;;;;5009892;28;20203;-31
2023/01/10 06:36:45;;;;;;;1.60;0.90;;;;;;;;;;5006480;28;20210;-35
2023/01/10 06:39:12;;;;;;;2.40;0.70;;;;;;;;;;4996396;28;20203;-38
2023/01/10 06:41:39;;;;;;;5.43;1.30;;;;;;;;;;5008831;28;20215;-37
2023/01/10 06:44:08;;;;;;;2.27;0.90;;;;;;;;;;4999216;28;20205;-39
2023/01/10 06:46:35;;;;;;;5.03;1.23;;;;;;;;;;5007098;28;20223;-40
2023/01/10 06:49:02;;;;;;;9.40;1.50;;;;;;;;;;5009590;28;20222;-36
2023/01/10 06:51:29;;;;;;;4.60;1.10;;;;;;;;;;4996195;28;20234;-34
2023/01/10 06:53:56;;;;;;;2.67;1.10;;;;;;;;;;5007538;28;20210;-40
2023/01/10 06:56:23;;;;;;;3.37;1.30;;;;;;;;;;5007102;28;20211;-36
2023/01/10 06:58:50;;;;;;;4.60;1.07;;;;;;;;;;5000433;28;20230;-35
2023/01/10 07:01:20;;;;;;;2.33;1.40;;;;;;;;;;5003718;28;20230;-39
2023/01/10 07:03:47;;;;;;;5.50;1.43;;;;;;;;;;5014096;28;20199;-37
2023/01/10 07:06:14;;;;;;;4.37;1.43;;;;;;;;;;4994467;28;20254;-36
2023/01/10 07:08:43;;;;;;;4.97;1.20;;;;;;;;;;5011856;28;20208;-36
2023/01/10 07:11:11;;;;;;;1.23;0.80;;;;;;;;;;5013360;28;20250;-36
2023/01/10 07:13:38;;;;;;;1.63;1.07;;;;;;;;;;5004403;28;20211;-37
2023/01/10 07:16:06;;;;;;;3.57;1.20;;;;;;;;;;5010045;28;20195;-36
2023/01/10 07:18:36;;;;;;;4.53;1.13;;;;;;;;;;5011348;28;20227;-37
2023/01/10 07:21:03;;;;;;;2.97;0.90;;;;;;;;;;5009528;28;20230;-30
2023/01/10 07:23:30;;;;;;;3.83;1.20;;;;;;;;;;5011646;28;20211;-32
2023/01/10 07:25:57;;;;;;;3.17;1.00;;;;;;;;;;5011559;28;20207;-36
2023/01/10 07:28:25;;;;;;;2.53;1.27;;;;;;;;;;5006787;28;20204;-36
2023/01/10 07:30:52;;;;;;;3.80;1.30;;;;;;;;;;5007233;28;20227;-32
2023/01/10 07:33:19;;;;;;;4.77;1.40;;;;;;;;;;5015798;28;20207;-36
2023/01/10 07:35:47;;;;;;;5.67;1.10;;;;;;;;;;5014895;28;20200;-38
2023/01/10 07:38:14;;;;;;;1.80;0.83;;;;;;;;;;5007380;28;20567;-32
2023/01/10 07:40:41;;;;;;;2.53;1.20;;;;;;;;;;5014392;28;20203;-31
2023/01/10 07:43:08;;;;;;;3.43;1.00;;;;;;;;;;5011748;28;20211;-32
2023/01/10 07:45:36;;;;;;;4.13;1.17;;;;;;;;;;5008396;28;20210;-39
2023/01/10 07:48:04;;;;;;;5.07;1.40;;;;;;;;;;5008963;28;20227;-37
2023/01/10 07:50:33;;;;;;;3.20;1.30;;;;;;;;;;5003741;28;20211;-35
2023/01/10 07:53:08;;;;;;;2.77;1.30;;;;;;;;;;5013020;28;20195;-36
2023/01/10 07:55:37;;;;;;;4.57;1.27;;;;;;;;;;5012757;28;20215;-36
2023/01/10 07:58:06;;;;;;;3.40;1.20;;;;;;;;;;5001410;28;20291;-39
2023/01/10 08:00:33;;;;;;;5.77;1.10;;;;;;;;;;5008707;28;20302;-29
2023/01/10 08:03:00;;;;;;;3.17;1.10;;;;;;;;;;5009024;28;20218;-31
2023/01/10 08:05:28;;;;;;;4.00;1.13;;;;;;;;;;5009749;28;20217;-34
2023/01/10 08:07:58;;;;;;;3.73;1.33;;;;;;;;;;5012608;28;20219;-32
2023/01/10 08:10:27;;;;;;;2.77;1.40;;;;;;;;;;5013196;28;20207;-37
2023/01/10 08:12:54;;;;;;;2.07;1.60;;;;;;;;;;5004377;28;20743;-35
2023/01/10 08:15:21;;;;;;;5.03;1.57;;;;;;;;;;5010642;28;20229;-34
2023/01/10 08:17:48;;;;;;;4.33;1.30;;;;;;;;;;5012218;28;20206;-35
2023/01/10 08:20:16;;;;;;;3.13;1.67;;;;;;;;;;5012539;28;20225;-36
2023/01/10 08:22:43;;;;;;;6.13;1.67;;;;;;;;;;5003157;28;20234;-35
2023/01/10 08:25:42;;;;;;;3.73;1.27;;;;;;;;;;5013279;28;20199;-31
2023/01/10 08:28:11;;;;;;;7.50;1.50;;;;;;;;;;5005673;28;20232;-33
2023/01/10 08:30:38;;;;;;;4.40;1.67;;;;;;;;;;5006065;28;20215;-36
2023/01/10 08:33:06;;;;;;;6.63;1.60;;;;;;;;;;5006497;28;20219;-36
2023/01/10 08:35:37;;;;;;;4.13;1.40;;;;;;;;;;5005005;28;20207;-35
2023/01/10 08:38:04;;;;;;;2.97;1.50;;;;;;;;;;5005898;28;20210;-31
2023/01/10 08:40:31;;;;;;;2.17;1.60;;;;;;;;;;5009831;28;20204;-38
2023/01/10 08:42:59;;;;;;;1.90;1.03;;;;;;;;;;5002653;28;20204;-31
2023/01/10 08:45:28;;;;;;;5.03;1.40;;;;;;;;;;5006601;28;20207;-33
2023/01/10 08:47:55;;;;;;;9.07;1.73;;;;;;;;;;5008315;28;20604;-36
2023/01/10 08:50:22;;;;;;;6.57;1.60;;;;;;;;;;5005477;28;20215;-33
2023/01/10 08:52:49;;;;;;;5.03;1.27;;;;;;;;;;5007316;28;20223;-34
2023/01/10 08:55:17;;;;;;;6.53;1.40;;;;;;;;;;5005869;28;20257;-38
2023/01/10 08:57:44;;;;;;;2.77;1.43;;;;;;;;;;5007096;28;20202;-34
2023/01/10 09:00:12;;;;;;;1.50;1.07;;;;;;;;;;4995777;28;20215;-35
2023/01/10 09:02:41;;;;;;;4.27;1.30;;;;;;;;;;5011268;28;20227;-36
2023/01/10 09:05:08;;;;;;;3.33;1.10;;;;;;;;;;5013530;28;20219;-34
2023/01/10 09:07:36;;;;;;;4.00;1.70;;;;;;;;;;5009603;28;20689;-35
2023/01/10 09:10:03;;;;;;;4.93;1.70;;;;;;;;;;5008103;28;20222;-35
2023/01/10 09:15:14;;;;;;;3.70;1.07;;;;;;;;;;5006954;28;20277;-33
2023/01/10 09:17:43;;;;;;;4.27;1.27;;;;;;;;;;5011175;28;20215;-34
2023/01/10 09:20:11;;;;;;;5.43;1.90;;;;;;;;;;5010479;28;20210;-31
2023/01/10 09:22:38;;;;;;;2.37;1.10;;;;;;;;;;5005635;28;20723;-34
2023/01/10 09:25:06;;;;;;;5.40;1.57;;;;;;;;;;5009835;28;20430;-33
2023/01/10 09:27:33;;;;;;;2.87;1.30;;;;;;;;;;5009071;28;20231;-35
2023/01/10 09:30:00;;;;;;;4.90;1.77;;;;;;;;;;4999451;28;20218;-37
2023/01/10 09:32:34;;;;;;;5.83;2.10;;;;;;;;;;5007879;28;20223;-36
2023/01/10 09:35:02;;;;;;;8.00;1.97;;;;;;;;;;5010569;28;20207;-35
2023/01/10 09:37:32;;;;;;;5.33;1.93;;;;;;;;;;5004981;28;20544;-35
2023/01/10 09:39:59;;;;;;;3.87;1.53;;;;;;;;;;5008197;28;20226;-32
2023/01/10 09:42:34;;;;;;;4.40;1.67;;;;;;;;;;5010843;28;20227;-33
2023/01/10 09:45:06;;;;;;;7.97;2.20;;;;;;;;;;5000981;28;20204;-35
2023/01/10 09:47:37;;;;;;;3.40;2.10;;;;;;;;;;5007949;28;20223;-32
2023/01/10 09:50:14;;;;;;;4.00;1.73;;;;;;;;;;5009982;28;20200;-38
2023/01/10 09:52:44;;;;;;;4.37;1.87;;;;;;;;;;5003631;28;20880;-32
2023/01/10 09:55:18;;;;;;;3.33;1.67;;;;;;;;;;5005716;28;20210;-33
2023/01/10 09:57:45;;;;;;;3.00;1.73;;;;;;;;;;5005840;28;20204;-40
2023/01/10 10:00:16;;;;;;;5.43;1.53;;;;;;;;;;5005561;28;20211;-36
2023/01/10 10:02:49;;;;;;;3.10;1.47;;;;;;;;;;5009470;28;20219;-28
2023/01/10 10:05:20;;;;;;;5.03;1.60;;;;;;;;;;4996892;28;20212;-33
2023/01/10 10:07:51;;;;;;;5.07;1.57;;;;;;;;;;5003956;28;20222;-40
2023/01/10 10:10:22;;;;;;;2.83;1.47;;;;;;;;;;5006901;28;20225;-32
2023/01/10 10:12:55;;;;;;;3.53;1.30;;;;;;;;;;5006879;28;20232;-39
2023/01/10 10:15:27;;;;;;;3.97;1.50;;;;;;;;;;5001180;28;20196;-32
2023/01/10 10:18:00;;;;;;;6.20;1.50;;;;;;;;;;5009172;28;20895;-38
2023/01/10 10:20:40;;;;;;;3.07;1.83;;;;;;;;;;5009187;28;20200;-38
2023/01/10 10:23:17;;;;;;;3.40;1.10;;;;;;;;;;5004170;28;20205;-40
2023/01/10 10:25:50;;;;;;;4.87;1.30;;;;;;;;;;5009264;28;20203;-36
2023/01/10 10:28:30;;;;;;;1.57;1.07;;;;;;;;;;5001982;28;20234;-34
2023/01/10 10:31:04;;;;;;;4.13;1.30;;;;;;;;;;4997720;28;20227;-37
2023/01/10 10:33:37;;;;;;;2.87;1.03;;;;;;;;;;5007215;28;20207;-30
2023/01/10 10:36:09;;;;;;;2.80;1.30;;;;;;;;;;4998529;28;20653;-35
2023/01/10 10:38:38;;;;;;;3.47;0.90;;;;;;;;;;5006520;28;20183;-35
2023/01/10 10:41:10;;;;;;;3.43;1.27;;;;;;;;;;5007930;28;20225;-35
2023/01/10 10:43:38;;;;;;;5.33;1.27;;;;;;;;;;4995256;28;20203;-33
2023/01/10 10:46:07;;;;;;;2.40;1.17;;;;;;;;;;5003203;28;20195;-32
2023/01/10 10:48:37;;;;;;;2.37;1.13;;;;;;;;;;5007152;28;20219;-37
2023/01/10 10:51:09;;;;;;;4.10;2.63;;;;;;;;;;5001302;28;20231;-34
2023/01/10 10:53:36;;;;;;;3.60;1.13;;;;;;;;;;5007002;28;20328;-38
2023/01/10 10:56:04;;;;;;;1.93;1.13;;;;;;;;;;5001779;28;20549;-37
2023/01/10 10:58:32;;;;;;;2.30;1.10;;;;;;;;;;4996302;28;20204;-37
2023/01/10 11:00:59;;;;;;;4.03;1.40;;;;;;;;;;5000594;28;20223;-37
2023/01/10 11:03:29;;;;;;;2.97;1.23;;;;;;;;;;5009257;28;20205;-35
2023/01/10 11:05:56;;;;;;;6.50;1.87;;;;;;;;;;5009411;28;20211;-32
2023/01/10 11:08:25;;;;;;;3.37;1.27;;;;;;;;;;4999676;28;20223;-32
2023/01/10 11:10:54;;;;;;;3.67;1.10;;;;;;;;;;5008018;28;20276;-37
2023/01/10 11:13:26;;;;;;;2.10;1.17;;;;;;;;;;5001096;28;20204;-33
2023/01/10 11:15:54;;;;;;;1.93;0.90;;;;;;;;;;5004554;28;20206;-30
2023/01/10 11:18:24;;;;;;;1.50;1.07;;;;;;;;;;5002692;28;20210;-41
2023/01/10 11:20:56;;;;;;;1.77;0.80;;;;;;;;;;5005900;28;20226;-32
2023/01/10 11:23:33;;;;;;;5.33;1.30;;;;;;;;;;5008948;28;20334;-37
2023/01/10 11:26:01;;;;;;;1.83;1.00;;;;;;;;;;5008196;28;20203;-37
2023/01/10 11:28:30;;;;;;;1.90;0.83;;;;;;;;;;4999420;28;20314;-34
2023/01/10 11:30:57;;;;;;;2.63;1.10;;;;;;;;;;5001338;28;20223;-33
2023/01/10 11:33:27;;;;;;;2.63;0.97;;;;;;;;;;5008745;28;20235;-30
2023/01/10 11:35:59;;;;;;;4.57;1.10;;;;;;;;;;5000917;28;20240;-37
2023/01/10 11:38:30;;;;;;;3.03;1.10;;;;;;;;;;5007267;28;20631;-31
2023/01/10 11:40:59;;;;;;;2.57;1.17;;;;;;;;;;5006543;28;20230;-36
2023/01/10 11:43:28;;;;;;;2.27;1.10;;;;;;;;;;5000672;28;20297;-36
2023/01/10 11:45:57;;;;;;;3.77;1.00;;;;;;;;;;5002002;28;20204;-34
2023/01/10 11:48:26;;;;;;;2.13;1.27;;;;;;;;;;5009966;28;20228;-38
2023/01/10 11:50:54;;;;;;;1.63;0.90;;;;;;;;;;5012178;28;20223;-37
2023/01/10 11:53:50;;;;;;;4.30;0.93;;;;;;;;;;4999558;28;20236;-34
2023/01/10 11:56:25;;;;;;;2.07;0.60;;;;;;;;;;5009489;28;20314;-35
2023/01/10 11:58:52;;;;;;;3.43;0.80;;;;;;;;;;4991946;28;20306;-31
2023/01/10 12:01:37;;;;;;;3.27;1.00;;;;;;;;;;5008929;28;20226;-31
2023/01/10 12:04:19;;;;;;;6.07;0.70;;;;;;;;;;5006461;28;20191;-36
2023/01/10 12:06:48;;;;;;;3.67;1.10;;;;;;;;;;5011765;28;20538;-38
2023/01/10 12:09:33;;;;;;;3.13;1.57;;;;;;;;;;5002917;28;20587;-29
2023/01/10 12:12:03;;;;;;;2.53;0.80;;;;;;;;;;5010019;28;20223;-36
2023/01/10 12:14:30;;;;;;;3.63;1.33;;;;;;;;;;4998129;28;20203;-35
2023/01/10 12:17:01;;;;;;;2.43;1.07;;;;;;;;;;5010139;28;20204;-36
2023/01/10 12:19:28;;;;;;;2.17;0.80;;;;;;;;;;5006472;28;20840;-37
2023/01/10 12:21:56;;;;;;;3.83;0.93;;;;;;;;;;5002768;28;20228;-33
2023/01/10 12:24:25;;;;;;;3.10;1.10;;;;;;;;;;5008285;28;20204;-35
2023/01/10 12:26:53;;;;;;;4.13;1.00;;;;;;;;;;5010925;28;20210;-32
2023/01/10 12:29:23;;;;;;;3.13;1.37;;;;;;;;;;5002975;28;20228;-34
2023/01/10 12:31:51;;;;;;;4.40;2.57;;;;;;;;;;5009661;28;20240;-34
2023/01/10 12:34:20;;;;;;;4.73;1.70;;;;;;;;;;5011784;28;20211;-39
2023/01/10 12:36:52;;;;;;;2.20;1.20;;;;;;;;;;5009273;28;20360;-37
2023/01/10 12:39:22;;;;;;;5.03;1.27;;;;;;;;;;5006924;28;20210;-38
2023/01/10 12:44:41;;;;;;;5.77;0.97;;;;;;;;;;5002096;28;20214;-31
2023/01/10 12:47:29;;;;;;;2.40;0.90;;;;;;;;;;5001800;28;20253;-32
2023/01/10 12:49:58;;;;;;;2.53;0.80;;;;;;;;;;5005581;28;20265;-35
2023/01/10 12:52:30;;;;;;;3.73;1.13;;;;;;;;;;5006354;28;20253;-32
2023/01/10 12:54:57;;;;;;;2.27;0.53;;;;;;;;;;5004136;28;20203;-36
2023/01/10 12:57:27;;;;;;;3.80;1.00;;;;;;;;;;5011472;28;20211;-36
2023/01/10 12:59:56;;;;;;;6.73;0.90;;;;;;;;;;4999772;28;20203;-38
2023/01/10 13:02:32;;;;;;;3.73;1.33;;;;;;;;;;5007925;28;20242;-38
2023/01/10 13:05:01;;;;;;;1.93;0.73;;;;;;;;;;4990547;28;20211;-35
2023/01/10 13:07:31;;;;;;;2.40;0.90;;;;;;;;;;5008537;28;20211;-39
2023/01/10 13:09:58;;;;;;;5.17;1.10;;;;;;;;;;5005856;28;20203;-34
2023/01/10 13:12:32;;;;;;;2.57;1.00;;;;;;;;;;5008707;28;20255;-35
2023/01/10 13:15:04;;;;;;;5.03;1.13;;;;;;;;;;5001575;28;20204;-36
2023/01/10 13:17:37;;;;;;;3.43;1.10;;;;;;;;;;5009777;28;20207;-41
2023/01/10 13:20:23;;;;;;;3.07;1.00;;;;;;;;;;5010482;28;20377;-36
2023/01/10 13:22:51;;;;;;;1.83;1.00;;;;;;;;;;5006098;28;20227;-33
2023/01/10 13:25:20;;;;;;;4.33;1.03;;;;;;;;;;5009473;28;20204;-37
2023/01/10 13:27:52;;;;;;;2.37;0.80;;;;;;;;;;5003876;28;20207;-34
2023/01/10 13:30:27;;;;;;;2.13;1.20;;;;;;;;;;5001651;28;20306;-33
2023/01/10 13:32:59;;;;;;;3.50;1.50;;;;;;;;;;4990028;28;20231;-36
2023/01/10 13:35:28;;;;;;;2.80;0.80;;;;;;;;;;5001241;28;20576;-39
2023/01/10 13:37:59;;;;;;;5.43;1.10;;;;;;;;;;4995890;28;20203;-35
2023/01/10 13:40:29;;;;;;;3.33;1.30;;;;;;;;;;5008538;28;20203;-33
2023/01/10 13:43:21;;;;;;;2.23;1.00;;;;;;;;;;5001831;28;20204;-38
2023/01/10 13:46:09;;;;;;;1.97;1.00;;;;;;;;;;5000908;28;20215;-33
2023/01/10 13:48:38;;;;;;;3.07;1.30;;;;;;;;;;5007273;28;20230;-38
2023/01/10 13:51:14;;;;;;;2.93;1.20;;;;;;;;;;4992287;28;20231;-35
2023/01/10 13:53:47;;;;;;;1.20;0.83;;;;;;;;;;4999679;28;20207;-36
2023/01/10 13:56:30;;;;;;;1.97;1.00;;;;;;;;;;5009318;28;20218;-35
2023/01/10 14:04:49;;;;;;;3.73;0.90;;;;;;;;;;5002351;28;20218;-34
2023/01/10 14:07:22;;;;;;;6.20;1.70;;;;;;;;;;4999244;28;20281;-34
2023/01/10 14:09:50;;;;;;;2.43;0.80;;;;;;;;;;5006957;28;20208;-38
2023/01/10 14:12:22;;;;;;;3.93;1.30;;;;;;;;;;5000622;28;20583;-34
2023/01/10 14:15:05;;;;;;;5.00;1.37;;;;;;;;;;5005214;28;20282;-36
2023/01/10 14:17:34;;;;;;;4.77;1.20;;;;;;;;;;4999392;28;20296;-38
2023/01/10 14:20:03;;;;;;;1.80;1.07;;;;;;;;;;5007137;28;20204;-34
2023/01/10 14:22:31;;;;;;;3.70;1.00;;;;;;;;;;5011380;28;20223;-35
2023/01/10 14:24:59;;;;;;;3.70;1.37;;;;;;;;;;5011531;28;20213;-32
2023/01/10 14:27:28;;;;;;;5.07;2.30;;;;;;;;;;5002231;28;20646;-33
2023/01/10 14:29:58;;;;;;;2.80;1.40;;;;;;;;;;4995242;28;20215;-35
2023/01/10 14:32:31;;;;;;;6.17;1.00;;;;;;;;;;5009193;28;20665;-34
2023/01/10 14:35:01;;;;;;;3.83;1.03;;;;;;;;;;5006943;28;20203;-39
2023/01/10 14:37:30;;;;;;;1.97;1.03;;;;;;;;;;4999306;28;20582;-33
2023/01/10 14:39:58;;;;;;;7.13;0.90;;;;;;;;;;5008213;28;20213;-31
2023/01/10 14:42:27;;;;;;;6.13;1.07;;;;;;;;;;5010428;28;20219;-33
2023/01/10 14:45:09;;;;;;;5.60;1.07;;;;;;;;;;4992620;28;20212;-32
2023/01/10 14:47:37;;;;;;;1.50;1.00;;;;;;;;;;4996759;28;20219;-31
2023/01/10 14:50:06;;;;;;;2.50;1.13;;;;;;;;;;5009147;28;20219;-36
2023/01/10 14:52:34;;;;;;;6.23;0.93;;;;;;;;;;5002020;28;20744;-35
2023/01/10 14:55:09;;;;;;;2.30;0.83;;;;;;;;;;5009474;28;20235;-32
2023/01/10 14:57:38;;;;;;;3.63;0.87;;;;;;;;;;5002310;28;20211;-38
2023/01/10 15:00:06;;;;;;;4.50;1.27;;;;;;;;;;4994039;28;20200;-33
2023/01/10 15:02:33;;;;;;;3.97;1.13;;;;;;;;;;5006216;28;20230;-33
2023/01/10 15:05:06;;;;;;;1.00;0.90;;;;;;;;;;5009920;28;20211;-36
2023/01/10 15:07:34;;;;;;;2.47;1.10;;;;;;;;;;5011361;28;20395;-38
2023/01/10 15:10:04;;;;;;;3.47;1.00;;;;;;;;;;5000106;28;20227;-34
2023/01/10 15:12:33;;;;;;;1.57;1.00;;;;;;;;;;5006803;28;20569;-33
2023/01/10 15:15:01;;;;;;;3.40;1.37;;;;;;;;;;5004969;28;20208;-35
2023/01/10 15:17:29;;;;;;;1.70;0.90;;;;;;;;;;5009155;28;20199;-30
2023/01/10 15:19:56;;;;;;;1.80;1.10;;;;;;;;;;5005209;28;20222;-37